createdAt,value
2022-11-01T00:01:50.471Z,91.60
2022-11-01T00:04:17.864Z,91.50
2022-11-01T00:11:38.449Z,91.50
2022-11-01T00:14:05.237Z,91.50
2022-11-01T00:16:31.849Z,91.40
2022-11-01T00:21:26.207Z,91.50
2022-11-01T00:23:52.735Z,91.40
2022-11-01T00:26:21.652Z,91.40
2022-11-01T00:31:17.379Z,91.30
2022-11-01T00:33:44.367Z,91.40
2022-11-01T00:36:11.393Z,91.40
2022-11-01T00:38:37.971Z,91.40
2022-11-01T00:41:05.124Z,91.40
2022-11-01T00:43:35.715Z,91.40
2022-11-01T00:46:03.466Z,91.40
2022-11-01T00:48:30.435Z,91.40
2022-11-01T00:50:56.997Z,91.40
2022-11-01T00:53:23.526Z,91.40
2022-11-01T00:55:50.041Z,91.40
2022-11-01T00:58:16.616Z,91.40
2022-11-01T01:00:43.266Z,91.40
2022-11-01T01:03:10.177Z,91.40
2022-11-01T01:05:37.083Z,91.40
2022-11-01T01:08:03.881Z,91.40
2022-11-01T01:10:30.507Z,91.40
2022-11-01T01:12:57.129Z,91.40
2022-11-01T01:15:23.740Z,91.40
2022-11-01T01:17:50.278Z,91.40
2022-11-01T01:20:16.930Z,91.40
2022-11-01T01:22:43.528Z,91.40
2022-11-01T01:25:10.785Z,91.40
2022-11-01T01:27:37.983Z,91.40
2022-11-01T01:30:07.490Z,91.40
2022-11-01T01:32:34.398Z,91.40
2022-11-01T01:35:01.101Z,91.40
2022-11-01T01:37:27.777Z,91.40
2022-11-01T01:39:54.577Z,91.40
2022-11-01T01:42:33.151Z,91.40
2022-11-01T01:45:15.261Z,91.30
2022-11-01T01:47:45.004Z,91.30
2022-11-01T01:50:23.316Z,91.30
2022-11-01T01:52:58.503Z,91.30
2022-11-01T01:55:42.589Z,91.30
2022-11-01T01:58:11.263Z,91.30
2022-11-01T02:00:38.841Z,91.30
2022-11-01T02:03:06.600Z,91.30
2022-11-01T02:05:53.543Z,91.30
2022-11-01T02:08:27.727Z,91.30
2022-11-01T02:10:56.804Z,91.30
2022-11-01T02:13:23.640Z,91.30
2022-11-01T02:16:06.137Z,91.30
2022-11-01T02:18:41.290Z,91.30
2022-11-01T02:21:19.844Z,91.30
2022-11-01T02:24:25.295Z,91.30
2022-11-01T02:27:14.569Z,91.30
2022-11-01T02:30:05.240Z,91.30
2022-11-01T02:32:56.456Z,91.30
2022-11-01T02:35:43.085Z,91.30
2022-11-01T02:38:15.406Z,91.30
2022-11-01T02:40:59.214Z,91.30
2022-11-01T02:43:49.815Z,91.30
2022-11-01T02:46:38.427Z,91.30
2022-11-01T02:49:06.709Z,91.30
2022-11-01T02:51:35.258Z,91.30
2022-11-01T02:54:41.338Z,91.30
2022-11-01T02:57:17.023Z,91.30
2022-11-01T02:59:46.244Z,91.20
2022-11-01T03:02:39.391Z,91.30
2022-11-01T03:05:14.219Z,91.30
2022-11-01T03:07:44.790Z,91.30
2022-11-01T03:10:12.084Z,91.30
2022-11-01T03:12:59.205Z,91.20
2022-11-01T03:15:33.838Z,91.30
2022-11-01T03:18:08.139Z,91.30
2022-11-01T03:20:48.807Z,91.20
2022-11-01T03:23:25.619Z,91.20
2022-11-01T03:25:55.681Z,91.20
2022-11-01T03:28:27.180Z,91.20
2022-11-01T03:31:02.134Z,91.20
2022-11-01T03:33:32.099Z,91.30
2022-11-01T03:36:13.411Z,91.20
2022-11-01T03:38:52.534Z,91.20
2022-11-01T03:41:21.809Z,91.20
2022-11-01T03:43:48.520Z,91.20
2022-11-01T03:46:15.865Z,91.20
2022-11-01T03:48:42.527Z,91.20
2022-11-01T03:51:09.323Z,91.20
2022-11-01T03:53:36.253Z,91.20
2022-11-01T03:56:02.887Z,91.20
2022-11-01T03:58:41.452Z,91.20
2022-11-01T04:01:13.164Z,91.20
2022-11-01T04:03:40.060Z,91.20
2022-11-01T04:06:06.995Z,91.20
2022-11-01T04:08:33.875Z,91.20
2022-11-01T04:11:00.774Z,91.20
2022-11-01T04:13:27.390Z,91.20
2022-11-01T04:16:12.857Z,91.20
2022-11-01T04:18:58.243Z,91.20
2022-11-01T04:21:26.130Z,91.20
2022-11-01T04:23:52.987Z,91.20
2022-11-01T04:26:23.694Z,91.20
2022-11-01T04:28:57.204Z,91.20
2022-11-01T04:31:37.416Z,91.20
2022-11-01T04:34:05.265Z,91.20
2022-11-01T04:36:32.369Z,91.20
2022-11-01T04:38:59.052Z,91.20
2022-11-01T04:41:28.423Z,91.20
2022-11-01T04:43:57.080Z,91.20
2022-11-01T04:46:24.003Z,91.20
2022-11-01T04:48:50.515Z,91.20
2022-11-01T04:51:17.235Z,91.20
2022-11-01T04:53:43.954Z,91.20
2022-11-01T04:56:13.368Z,91.20
2022-11-01T04:58:44.743Z,91.20
2022-11-01T05:01:13.570Z,91.20
2022-11-01T05:03:40.248Z,91.30
2022-11-01T05:08:34.052Z,91.20
2022-11-01T05:11:00.662Z,91.30
2022-11-01T05:16:18.036Z,91.30
2022-11-01T05:18:42.773Z,91.30
2022-11-01T05:21:09.414Z,91.30
2022-11-01T05:23:36.003Z,91.30
2022-11-01T05:26:02.607Z,91.20
2022-11-01T05:28:29.175Z,91.30
2022-11-01T05:30:58.015Z,91.20
2022-11-01T05:33:24.609Z,91.00
2022-11-01T05:35:51.151Z,91.00
2022-11-01T05:38:17.703Z,90.80
2022-11-01T05:40:44.238Z,91.10
2022-11-01T05:45:37.806Z,91.20
2022-11-01T05:53:06.889Z,91.10
2022-11-01T05:55:33.548Z,91.10
2022-11-01T05:58:00.364Z,90.90
2022-11-01T06:00:27.122Z,90.70
2022-11-01T06:02:53.698Z,90.60
2022-11-01T06:07:47.228Z,91.00
2022-11-01T06:10:13.781Z,90.80
2022-11-01T06:15:07.803Z,90.00
2022-11-01T06:17:34.418Z,88.60
2022-11-01T06:20:01.016Z,88.00
2022-11-01T06:22:27.638Z,87.90
2022-11-01T06:24:54.204Z,87.10
2022-11-01T06:27:20.754Z,87.70
2022-11-01T06:32:14.241Z,87.90
2022-11-01T06:37:11.771Z,89.60
2022-11-01T06:39:38.359Z,89.80
2022-11-01T06:42:05.484Z,89.90
2022-11-01T06:44:32.093Z,90.00
2022-11-01T06:46:58.612Z,90.00
2022-11-01T06:51:52.180Z,90.00
2022-11-01T06:54:19.159Z,90.00
2022-11-01T06:56:48.678Z,90.10
2022-11-01T06:59:16.736Z,90.10
2022-11-01T07:01:44.122Z,90.10
2022-11-01T07:06:42.838Z,90.10
2022-11-01T07:09:10.163Z,90.10
2022-11-01T07:11:36.914Z,90.20
2022-11-01T07:16:31.679Z,90.20
2022-11-01T07:18:58.514Z,90.20
2022-11-01T07:21:25.056Z,90.10
2022-11-01T07:26:20.916Z,90.30
2022-11-01T07:28:47.511Z,90.30
2022-11-01T07:31:14.068Z,90.30
2022-11-01T07:33:40.707Z,90.30
2022-11-01T07:36:07.803Z,90.30
2022-11-01T07:38:34.341Z,90.20
2022-11-01T07:41:02.822Z,90.10
2022-11-01T07:46:00.416Z,90.00
2022-11-01T07:48:27.820Z,90.20
2022-11-01T07:50:56.575Z,90.10
2022-11-01T07:53:23.150Z,90.20
2022-11-01T07:55:51.351Z,89.50
2022-11-01T07:58:17.892Z,90.10
2022-11-01T08:00:44.976Z,90.10
2022-11-01T08:03:14.239Z,90.10
2022-11-01T08:05:41.780Z,90.00
2022-11-01T08:10:36.846Z,90.10
2022-11-01T08:13:09.088Z,86.60
2022-11-01T08:18:03.283Z,89.60
2022-11-01T08:20:30.726Z,89.60
2022-11-01T08:27:51.714Z,89.60
2022-11-01T08:30:19.446Z,89.20
2022-11-01T08:32:46.430Z,89.30
2022-11-01T08:35:13.045Z,89.30
2022-11-01T08:37:52.577Z,88.20
2022-11-01T08:40:20.119Z,88.50
2022-11-01T08:42:47.347Z,88.80
2022-11-01T08:45:15.443Z,88.40
2022-11-01T08:50:11.611Z,87.70
2022-11-01T08:52:39.167Z,87.90
2022-11-01T08:55:07.366Z,87.50
2022-11-01T08:57:33.928Z,87.90
2022-11-01T09:00:00.484Z,88.30
2022-11-01T09:04:54.034Z,86.60
2022-11-01T09:09:47.729Z,87.60
2022-11-01T09:14:42.015Z,87.50
2022-11-01T09:19:37.380Z,85.10
2022-11-01T09:22:03.947Z,86.90
2022-11-01T09:24:30.540Z,87.00
2022-11-01T09:26:57.093Z,87.30
2022-11-01T09:29:23.769Z,87.00
2022-11-01T09:31:54.276Z,87.30
2022-11-01T09:34:21.749Z,87.40
2022-11-01T09:36:48.835Z,86.90
2022-11-01T09:39:17.616Z,86.70
2022-11-01T09:41:49.649Z,86.90
2022-11-01T09:44:20.181Z,86.60
2022-11-01T09:47:01.411Z,87.10
2022-11-01T09:49:33.128Z,87.70
2022-11-01T09:51:59.871Z,87.70
2022-11-01T09:54:28.391Z,88.00
2022-11-01T09:57:26.632Z,87.40
2022-11-01T10:00:13.220Z,86.20
2022-11-01T10:06:03.914Z,84.20
2022-11-01T10:08:45.015Z,84.90
2022-11-01T10:11:50.179Z,83.90
2022-11-01T10:14:53.509Z,85.20
2022-11-01T10:17:52.514Z,85.80
2022-11-01T10:20:24.284Z,86.00
2022-11-01T10:25:29.045Z,86.40
2022-11-01T10:27:58.657Z,86.50
2022-11-01T10:30:27.051Z,85.50
2022-11-01T10:33:14.828Z,84.60
2022-11-01T10:35:44.894Z,85.90
2022-11-01T10:38:49.961Z,85.10
2022-11-01T10:41:26.785Z,85.20
2022-11-01T10:43:58.928Z,84.70
2022-11-01T10:46:30.978Z,85.10
2022-11-01T10:49:01.597Z,85.60
2022-11-01T10:51:30.255Z,85.70
2022-11-01T10:54:01.876Z,85.60
2022-11-01T10:56:35.815Z,85.30
2022-11-01T10:59:18.475Z,86.00
2022-11-01T11:01:45.627Z,85.50
2022-11-01T11:04:15.763Z,85.40
2022-11-01T11:06:43.421Z,85.40
2022-11-01T11:09:25.146Z,84.50
2022-11-01T11:11:55.090Z,84.70
2022-11-01T11:16:55.818Z,85.10
2022-11-01T11:19:33.163Z,85.20
2022-11-01T11:22:01.614Z,84.70
2022-11-01T11:24:40.058Z,84.70
2022-11-01T11:27:32.856Z,84.60
2022-11-01T11:30:05.501Z,84.30
2022-11-01T11:32:34.266Z,84.70
2022-11-01T11:35:28.341Z,84.80
2022-11-01T11:38:03.884Z,85.10
2022-11-01T11:40:40.617Z,85.10
2022-11-01T11:43:21.300Z,84.50
2022-11-01T11:46:09.616Z,84.30
2022-11-01T11:48:56.421Z,84.20
2022-11-01T11:51:25.549Z,84.20
2022-11-01T11:54:07.062Z,84.10
2022-11-01T11:56:33.717Z,84.20
2022-11-01T11:59:16.804Z,84.50
2022-11-01T12:01:43.669Z,85.10
2022-11-01T12:04:16.237Z,84.60
2022-11-01T12:06:46.530Z,83.70
2022-11-01T12:09:50.247Z,84.20
2022-11-01T12:12:42.574Z,85.70
2022-11-01T12:15:35.764Z,85.80
2022-11-01T12:18:18.071Z,85.60
2022-11-01T12:20:50.739Z,85.50
2022-11-01T12:23:26.744Z,84.10
2022-11-01T12:25:55.165Z,84.60
2022-11-01T12:28:33.880Z,84.10
2022-11-01T12:31:13.134Z,83.80
2022-11-01T12:34:00.329Z,84.20
2022-11-01T12:36:34.180Z,85.50
2022-11-01T12:39:12.821Z,85.80
2022-11-01T12:41:51.657Z,85.50
2022-11-01T12:44:32.383Z,85.90
2022-11-01T12:47:07.611Z,86.40
2022-11-01T12:49:45.038Z,86.30
2022-11-01T12:52:25.845Z,86.50
2022-11-01T12:55:26.709Z,86.20
2022-11-01T12:57:54.926Z,86.80
2022-11-01T13:00:21.917Z,86.60
2022-11-01T13:03:08.435Z,86.70
2022-11-01T13:06:05.905Z,86.60
2022-11-01T13:09:12.962Z,87.00
2022-11-01T13:11:56.341Z,86.50
2022-11-01T13:14:41.703Z,86.50
2022-11-01T13:17:11.332Z,86.90
2022-11-01T13:20:00.007Z,86.90
2022-11-01T13:22:39.875Z,86.60
2022-11-01T13:25:29.991Z,86.90
2022-11-01T13:28:13.107Z,87.00
2022-11-01T13:30:47.645Z,86.90
2022-11-01T13:33:49.849Z,87.40
2022-11-01T13:36:30.314Z,87.30
2022-11-01T13:39:22.955Z,86.30
2022-11-01T13:41:54.867Z,86.20
2022-11-01T13:44:26.569Z,86.40
2022-11-01T13:47:29.750Z,86.30
2022-11-01T13:50:15.461Z,86.30
2022-11-01T13:52:49.810Z,86.30
2022-11-01T13:55:36.297Z,85.40
2022-11-01T13:58:06.104Z,85.70
2022-11-01T14:00:43.207Z,85.90
2022-11-01T14:03:32.573Z,85.50
2022-11-01T14:06:11.428Z,85.60
2022-11-01T14:08:42.917Z,85.60
2022-11-01T14:11:34.067Z,85.40
2022-11-01T14:14:20.576Z,85.30
2022-11-01T14:16:47.181Z,85.20
2022-11-01T14:19:20.850Z,84.70
2022-11-01T14:21:49.592Z,84.40
2022-11-01T14:24:24.107Z,84.20
2022-11-01T14:27:19.062Z,84.40
2022-11-01T14:29:50.275Z,84.30
2022-11-01T14:32:18.714Z,84.00
2022-11-01T14:34:51.956Z,83.20
2022-11-01T14:37:22.594Z,84.10
2022-11-01T14:40:00.257Z,83.70
2022-11-01T14:42:36.836Z,83.10
2022-11-01T14:45:10.626Z,82.40
2022-11-01T14:47:40.804Z,83.30
2022-11-01T14:50:28.264Z,83.90
2022-11-01T14:53:03.189Z,84.70
2022-11-01T14:55:38.527Z,84.50
2022-11-01T14:58:29.167Z,85.10
2022-11-01T15:00:55.846Z,85.00
2022-11-01T15:03:23.000Z,83.40
2022-11-01T15:05:52.858Z,83.50
2022-11-01T15:08:56.643Z,82.80
2022-11-01T15:11:27.974Z,82.40
2022-11-01T15:13:55.578Z,82.00
2022-11-01T15:16:26.622Z,82.50
2022-11-01T15:18:56.957Z,82.40
2022-11-01T15:21:29.033Z,82.70
2022-11-01T15:23:58.453Z,82.80
2022-11-01T15:26:30.240Z,82.80
2022-11-01T15:29:05.490Z,82.40
2022-11-01T15:31:34.761Z,84.20
2022-11-01T15:34:19.967Z,83.40
2022-11-01T15:36:46.697Z,83.70
2022-11-01T15:39:20.915Z,83.50
2022-11-01T15:41:48.230Z,83.20
2022-11-01T15:44:29.610Z,83.00
2022-11-01T15:47:01.924Z,79.00
2022-11-01T15:49:50.763Z,78.30
2022-11-01T15:56:15.089Z,77.90
2022-11-01T15:59:14.796Z,77.50
2022-11-01T16:01:41.773Z,76.60
2022-11-01T16:04:11.415Z,77.70
2022-11-01T16:06:43.909Z,77.90
2022-11-01T16:09:29.966Z,77.20
2022-11-01T16:11:59.587Z,79.40
2022-11-01T16:14:37.098Z,79.40
2022-11-01T16:17:25.054Z,79.60
2022-11-01T16:19:52.682Z,79.40
2022-11-01T16:22:41.968Z,78.90
2022-11-01T16:25:11.204Z,78.80
2022-11-01T16:28:02.970Z,78.80
2022-11-01T16:30:48.020Z,79.30
2022-11-01T16:33:30.058Z,79.60
2022-11-01T16:36:23.128Z,79.80
2022-11-01T16:38:54.453Z,80.10
2022-11-01T16:41:38.077Z,80.60
2022-11-01T16:44:16.008Z,80.70
2022-11-01T16:46:42.914Z,81.40
2022-11-01T16:49:18.352Z,81.80
2022-11-01T16:51:45.068Z,81.80
2022-11-01T16:54:12.623Z,81.80
2022-11-01T16:57:34.199Z,82.10
2022-11-01T17:00:01.565Z,82.20
2022-11-01T17:02:30.200Z,82.40
2022-11-01T17:05:06.308Z,82.30
2022-11-01T17:07:33.038Z,83.00
2022-11-01T17:09:59.567Z,82.90
2022-11-01T17:12:26.101Z,82.90
2022-11-01T17:14:53.464Z,83.10
2022-11-01T17:17:24.382Z,83.00
2022-11-01T17:19:58.181Z,79.90
2022-11-01T17:22:32.365Z,82.70
2022-11-01T17:24:59.041Z,82.60
2022-11-01T17:27:26.804Z,83.40
2022-11-01T17:29:53.515Z,83.00
2022-11-01T17:32:20.078Z,82.60
2022-11-01T17:34:49.113Z,82.60
2022-11-01T17:37:17.158Z,82.70
2022-11-01T17:39:43.931Z,82.90
2022-11-01T17:42:10.624Z,82.70
2022-11-01T17:44:37.201Z,82.50
2022-11-01T17:47:03.777Z,82.70
2022-11-01T17:49:30.293Z,82.80
2022-11-01T17:51:56.875Z,82.90
2022-11-01T17:54:23.606Z,82.90
2022-11-01T17:56:50.910Z,82.90
2022-11-01T17:59:17.503Z,83.30
2022-11-01T18:01:44.870Z,83.50
2022-11-01T18:04:11.599Z,83.60
2022-11-01T18:06:40.158Z,83.50
2022-11-01T18:09:21.034Z,83.90
2022-11-01T18:11:54.364Z,84.20
2022-11-01T18:14:32.893Z,84.30
2022-11-01T18:17:16.484Z,84.40
2022-11-01T18:20:17.080Z,84.30
2022-11-01T18:22:53.627Z,84.20
2022-11-01T18:25:36.995Z,84.30
2022-11-01T18:28:18.348Z,84.40
2022-11-01T18:30:54.703Z,85.00
2022-11-01T18:33:44.386Z,84.60
2022-11-01T18:36:32.453Z,84.60
2022-11-01T18:39:10.856Z,84.80
2022-11-01T18:41:37.505Z,84.90
2022-11-01T18:44:10.518Z,84.70
2022-11-01T18:46:48.575Z,84.80
2022-11-01T18:49:15.166Z,84.90
2022-11-01T18:51:41.768Z,85.00
2022-11-01T18:54:08.283Z,85.10
2022-11-01T18:56:39.373Z,85.10
2022-11-01T18:59:38.184Z,85.10
2022-11-01T19:02:10.831Z,85.20
2022-11-01T19:04:39.602Z,85.30
2022-11-01T19:07:12.570Z,85.30
2022-11-01T19:09:44.820Z,85.60
2022-11-01T19:12:27.988Z,85.50
2022-11-01T19:15:03.594Z,85.60
2022-11-01T19:17:37.193Z,85.50
2022-11-01T19:20:22.911Z,85.50
2022-11-01T19:22:49.735Z,85.70
2022-11-01T19:25:34.527Z,85.60
2022-11-01T19:28:04.265Z,85.70
2022-11-01T19:30:32.884Z,85.70
2022-11-01T19:33:29.079Z,85.90
2022-11-01T19:35:57.053Z,85.70
2022-11-01T19:38:23.942Z,85.90
2022-11-01T19:40:52.779Z,85.90
2022-11-01T19:43:21.321Z,85.80
2022-11-01T19:45:50.966Z,85.80
2022-11-01T19:48:22.240Z,85.90
2022-11-01T19:50:49.103Z,86.00
2022-11-01T19:53:24.811Z,86.10
2022-11-01T19:55:59.552Z,86.10
2022-11-01T19:58:45.643Z,86.00
2022-11-01T20:01:19.601Z,86.00
2022-11-01T20:03:50.601Z,86.20
2022-11-01T20:06:23.021Z,86.20
2022-11-01T20:08:51.523Z,86.30
2022-11-01T20:11:18.155Z,86.20
2022-11-01T20:13:44.947Z,86.20
2022-11-01T20:16:11.665Z,86.20
2022-11-01T20:18:38.373Z,86.10
2022-11-01T20:21:06.323Z,86.40
2022-11-01T20:23:34.012Z,86.40
2022-11-01T20:26:01.799Z,86.50
2022-11-01T20:28:28.494Z,86.50
2022-11-01T20:30:55.988Z,86.50
2022-11-01T20:33:25.164Z,86.60
2022-11-01T20:35:52.596Z,86.50
2022-11-01T20:40:47.109Z,86.50
2022-11-01T20:43:13.656Z,86.60
2022-11-01T20:45:41.492Z,86.70
2022-11-01T20:48:08.208Z,86.70
2022-11-01T20:50:35.454Z,86.70
2022-11-01T20:53:02.698Z,86.70
2022-11-01T20:55:29.370Z,86.70
2022-11-01T20:57:56.291Z,86.70
2022-11-01T21:00:22.871Z,86.70
2022-11-01T21:02:49.463Z,86.90
2022-11-01T21:05:16.312Z,86.90
2022-11-01T21:07:46.901Z,84.20
2022-11-01T21:10:31.288Z,86.30
2022-11-01T21:13:00.250Z,86.80
2022-11-01T21:15:34.939Z,86.70
2022-11-01T21:18:07.467Z,86.80
2022-11-01T21:20:45.365Z,80.70
2022-11-01T21:23:20.967Z,85.70
2022-11-01T21:25:59.318Z,86.70
2022-11-01T21:28:30.532Z,86.80
2022-11-01T21:31:09.855Z,86.60
2022-11-01T21:33:38.930Z,86.10
2022-11-01T21:36:20.837Z,86.50
2022-11-01T21:38:59.433Z,86.60
2022-11-01T21:41:34.649Z,86.60
2022-11-01T21:44:12.018Z,86.70
2022-11-01T21:46:38.587Z,86.80
2022-11-01T21:49:22.061Z,86.80
2022-11-01T21:51:48.631Z,86.70
2022-11-01T21:54:15.140Z,86.70
2022-11-01T21:56:41.978Z,86.90
2022-11-01T21:59:08.540Z,86.70
2022-11-01T22:01:35.231Z,86.80
2022-11-01T22:04:02.438Z,86.90
2022-11-01T22:06:28.991Z,86.70
2022-11-01T22:08:55.540Z,86.90
2022-11-01T22:11:23.812Z,87.00
2022-11-01T22:13:50.662Z,87.10
2022-11-01T22:16:17.279Z,87.00
2022-11-01T22:18:44.023Z,87.00
2022-11-01T22:21:10.549Z,87.10
2022-11-01T22:23:37.076Z,87.10
2022-11-01T22:26:03.653Z,87.10
2022-11-01T22:28:30.186Z,87.20
2022-11-01T22:30:56.709Z,87.20
2022-11-01T22:33:23.252Z,87.30
2022-11-01T22:35:49.776Z,87.30
2022-11-01T22:38:19.748Z,87.10
2022-11-01T22:43:24.381Z,86.60
2022-11-01T22:45:52.842Z,86.80
2022-11-01T22:48:22.478Z,86.90
2022-11-01T22:50:49.688Z,86.90
2022-11-01T22:53:22.567Z,86.90
2022-11-01T22:55:52.092Z,87.00
2022-11-01T22:58:33.536Z,87.00
2022-11-01T23:01:00.755Z,86.90
2022-11-01T23:03:31.408Z,86.90
2022-11-01T23:06:01.532Z,87.00
2022-11-01T23:08:31.957Z,86.90
2022-11-01T23:10:59.093Z,86.90
2022-11-01T23:13:47.889Z,86.90
2022-11-01T23:16:34.619Z,87.00
2022-11-01T23:19:03.557Z,86.90
2022-11-01T23:21:30.147Z,86.90
2022-11-01T23:23:56.727Z,86.90
2022-11-01T23:26:23.858Z,86.90
2022-11-01T23:28:54.164Z,86.80
2022-11-01T23:31:21.895Z,86.90
2022-11-01T23:33:49.815Z,86.90
2022-11-01T23:36:24.387Z,87.00
2022-11-01T23:41:36.652Z,87.00
2022-11-01T23:44:29.611Z,87.00
2022-11-01T23:47:04.319Z,87.00
2022-11-01T23:49:32.882Z,87.00
2022-11-01T23:52:00.303Z,87.10
2022-11-01T23:54:43.952Z,87.10
2022-11-01T23:57:18.354Z,87.00
2022-11-01T23:59:45.304Z,87.10
